sensor_id;sensor_type;location;lat;lon;timestamp;pressure;altitude;pressure_sealevel;temperature;humidity
76070;BME280;64768;51.738;5.852;2023-02-26T09:52:46;102571.41;;;5.29;86.94
76070;BME280;64768;51.738;5.852;2023-02-26T09:55:39;102584.31;;;5.61;86.04
76070;BME280;64768;51.738;5.852;2023-02-26T09:58:29;102567.59;;;5.68;84.04
76070;BME280;64768;51.738;5.852;2023-02-26T10:01:05;102568.31;;;5.86;78.72
76070;BME280;64768;51.738;5.852;2023-02-26T10:14:13;102587.06;;;6.41;76.05
76070;BME280;64768;51.738;5.852;2023-02-26T10:22:25;102599.59;;;6.25;67.20
76070;BME280;64768;51.738;5.852;2023-02-26T10:25:23;102613.19;;;6.58;69.76
76070;BME280;64768;51.738;5.852;2023-02-26T10:28:08;102618.66;;;6.91;73.00
76070;BME280;64768;51.738;5.852;2023-02-26T10:31:06;102595.56;;;6.73;66.85
76070;BME280;64768;51.738;5.852;2023-02-26T10:34:20;102601.88;;;6.77;67.70
76070;BME280;64768;51.738;5.852;2023-02-26T10:37:14;102622.47;;;6.90;70.71
76070;BME280;64768;51.738;5.852;2023-02-26T10:40:03;102617.91;;;7.03;68.76
76070;BME280;64768;51.738;5.852;2023-02-26T10:42:49;102604.47;;;7.06;65.03
76070;BME280;64768;51.738;5.852;2023-02-26T10:45:34;102620.47;;;7.32;71.07
76070;BME280;64768;51.738;5.852;2023-02-26T10:48:38;102606.22;;;7.23;68.72
76070;BME280;64768;51.738;5.852;2023-02-26T10:51:14;102596.63;;;7.26;66.53
76070;BME280;64768;51.738;5.852;2023-02-26T11:12:11;102624.56;;;6.72;68.41
76070;BME280;64768;51.738;5.852;2023-02-26T11:15:02;102612.78;;;6.47;70.91
76070;BME280;64768;51.738;5.852;2023-02-26T11:18:22;102611.41;;;6.41;70.10
76070;BME280;64768;51.738;5.852;2023-02-26T14:35:49;102571.13;;;7.75;75.01
76070;BME280;64768;51.738;5.852;2023-02-26T14:38:25;102565.59;;;7.84;76.89
76070;BME280;64768;51.738;5.852;2023-02-26T14:41:06;102576.66;;;8.03;76.76
76070;BME280;64768;51.738;5.852;2023-02-26T14:43:44;102578.09;;;8.13;76.47
76070;BME280;64768;51.738;5.852;2023-02-26T14:46:19;102585.88;;;8.27;71.81
76070;BME280;64768;51.738;5.852;2023-02-26T14:48:49;102585.50;;;8.28;71.10
76070;BME280;64768;51.738;5.852;2023-02-26T14:51:50;102587.56;;;8.31;68.58
76070;BME280;64768;51.738;5.852;2023-02-26T14:54:37;102584.38;;;8.41;78.08
76070;BME280;64768;51.738;5.852;2023-02-26T14:57:39;102571.94;;;8.40;70.04
76070;BME280;64768;51.738;5.852;2023-02-26T15:00:18;102580.75;;;8.50;71.84
76070;BME280;64768;51.738;5.852;2023-02-26T15:03:19;102584.25;;;8.50;70.30
76070;BME280;64768;51.738;5.852;2023-02-26T15:06:03;102589.19;;;8.60;75.88
76070;BME280;64768;51.738;5.852;2023-02-26T15:08:58;102601.84;;;8.68;70.25
76070;BME280;64768;51.738;5.852;2023-02-26T15:11:57;102583.97;;;8.67;74.37
76070;BME280;64768;51.738;5.852;2023-02-26T15:23:55;102590.97;;;8.68;77.61
76070;BME280;64768;51.738;5.852;2023-02-26T15:26:35;102594.41;;;8.65;70.86
76070;BME280;64768;51.738;5.852;2023-02-26T15:29:10;102583.31;;;8.58;67.86
76070;BME280;64768;51.738;5.852;2023-02-26T15:31:45;102602.19;;;8.67;71.39
76070;BME280;64768;51.738;5.852;2023-02-26T15:34:24;102588.22;;;8.53;71.77
76070;BME280;64768;51.738;5.852;2023-02-26T15:36:59;102591.81;;;8.57;76.55
76070;BME280;64768;51.738;5.852;2023-02-26T15:39:34;102601.56;;;8.46;73.13
76070;BME280;64768;51.738;5.852;2023-02-26T15:42:09;102601.25;;;8.47;70.53
76070;BME280;64768;51.738;5.852;2023-02-26T15:44:46;102603.19;;;8.47;75.96
76070;BME280;64768;51.738;5.852;2023-02-26T15:47:23;102600.13;;;8.36;74.32
76070;BME280;64768;51.738;5.852;2023-02-26T15:49:52;102596.84;;;8.30;76.17
76070;BME280;64768;51.738;5.852;2023-02-26T15:52:31;102613.25;;;8.34;72.64
76070;BME280;64768;51.738;5.852;2023-02-26T15:55:19;102597.31;;;8.20;70.26
76070;BME280;64768;51.738;5.852;2023-02-26T15:57:51;102600.81;;;8.08;68.66
76070;BME280;64768;51.738;5.852;2023-02-26T16:00:32;102620.50;;;8.05;73.78
76070;BME280;64768;51.738;5.852;2023-02-26T16:19:09;102610.56;;;7.48;74.37
76070;BME280;64768;51.738;5.852;2023-02-26T16:22:00;102631.56;;;7.51;74.03
76070;BME280;64768;51.738;5.852;2023-02-26T16:24:57;102632.09;;;7.45;72.95
76070;BME280;64768;51.738;5.852;2023-02-26T16:27:40;102612.09;;;7.25;75.64
76070;BME280;64768;51.738;5.852;2023-02-26T16:30:41;102624.72;;;7.21;75.95
76070;BME280;64768;51.738;5.852;2023-02-26T16:33:30;102612.59;;;7.06;78.15
76070;BME280;64768;51.738;5.852;2023-02-26T16:47:33;102650.09;;;6.62;76.89
76070;BME280;64768;51.738;5.852;2023-02-26T16:50:20;102639.94;;;6.39;78.49
76070;BME280;64768;51.738;5.852;2023-02-26T16:58:45;102669.19;;;6.16;80.96
76070;BME280;64768;51.738;5.852;2023-02-26T17:01:32;102661.66;;;5.92;81.28
76070;BME280;64768;51.738;5.852;2023-02-26T17:07:32;102670.97;;;5.65;85.03
76070;BME280;64768;51.738;5.852;2023-02-26T17:10:42;102674.34;;;5.53;84.73
76070;BME280;64768;51.738;5.852;2023-02-26T17:13:33;102666.56;;;5.34;86.14
76070;BME280;64768;51.738;5.852;2023-02-26T17:16:20;102676.63;;;5.25;85.21
